Terminal Aerodrome Forecast
Issued by NWS

Home | Current Version | Previous Version | Text Only | Print | Product List | Glossary On
Versions: 1 2 3 4 5 6 7 8 9 10 11 12 13 14 15 16 17 18 19 20 21 22
000
FTUS46 KSEW 230535
TAFSEA
TAF
KSEA 230535Z 2306/2412 20008KT P6SM FEW035 SCT250
     FM230900 19008KT P6SM SCT022 BKN100
      TEMPO 2310/2314 BKN022 OVC045
     FM231900 17008KT P6SM SCT040 BKN060 OVC150
     FM240300 12008KT P6SM -RA SCT030 OVC040=

USA.gov is the U.S. government's official web portal to all federal, state and local government web resources and services.